sensor_id;sensor_type;location;lat;lon;timestamp;temperature;humidity
13589;DHT22;6865;52.552;13.434;2022-09-29T00:01:02;9.30;99.90
13589;DHT22;6865;52.552;13.434;2022-09-29T00:03:29;9.10;99.90
13589;DHT22;6865;52.552;13.434;2022-09-29T00:05:56;9.10;99.90
13589;DHT22;6865;52.552;13.434;2022-09-29T00:08:27;9.20;99.90
13589;DHT22;6865;52.552;13.434;2022-09-29T00:10:54;9.00;99.90
13589;DHT22;6865;52.552;13.434;2022-09-29T00:13:22;9.00;99.90
13589;DHT22;6865;52.552;13.434;2022-09-29T00:15:59;8.90;99.90
13589;DHT22;6865;52.552;13.434;2022-09-29T00:18:27;8.90;99.90
13589;DHT22;6865;52.552;13.434;2022-09-29T00:20:56;9.00;99.90
13589;DHT22;6865;52.552;13.434;2022-09-29T00:23:24;8.90;99.90
13589;DHT22;6865;52.552;13.434;2022-09-29T00:28:30;8.90;99.90
13589;DHT22;6865;52.552;13.434;2022-09-29T00:30:58;8.90;99.90
13589;DHT22;6865;52.552;13.434;2022-09-29T00:33:28;8.90;99.90
13589;DHT22;6865;52.552;13.434;2022-09-29T00:36:19;8.90;99.90
13589;DHT22;6865;52.552;13.434;2022-09-29T00:38:45;9.00;99.90
13589;DHT22;6865;52.552;13.434;2022-09-29T00:41:18;9.00;99.90
13589;DHT22;6865;52.552;13.434;2022-09-29T00:46:56;8.90;99.90
13589;DHT22;6865;52.552;13.434;2022-09-29T00:49:54;8.90;99.90
13589;DHT22;6865;52.552;13.434;2022-09-29T00:52:33;8.80;99.90
13589;DHT22;6865;52.552;13.434;2022-09-29T00:55:06;8.80;99.90
13589;DHT22;6865;52.552;13.434;2022-09-29T00:57:40;8.80;99.90
13589;DHT22;6865;52.552;13.434;2022-09-29T01:00:13;8.80;99.90
13589;DHT22;6865;52.552;13.434;2022-09-29T01:02:44;8.70;99.90
13589;DHT22;6865;52.552;13.434;2022-09-29T01:05:16;8.70;99.90
13589;DHT22;6865;52.552;13.434;2022-09-29T01:07:44;8.60;99.90
13589;DHT22;6865;52.552;13.434;2022-09-29T01:10:14;8.10;99.90
13589;DHT22;6865;52.552;13.434;2022-09-29T01:12:47;8.60;99.90
13589;DHT22;6865;52.552;13.434;2022-09-29T01:15:19;8.50;99.90
13589;DHT22;6865;52.552;13.434;2022-09-29T01:17:46;8.50;99.90
13589;DHT22;6865;52.552;13.434;2022-09-29T01:20:21;7.80;99.90
13589;DHT22;6865;52.552;13.434;2022-09-29T01:23:12;8.40;99.90
13589;DHT22;6865;52.552;13.434;2022-09-29T01:26:14;8.40;99.90
13589;DHT22;6865;52.552;13.434;2022-09-29T01:29:11;8.40;99.90
13589;DHT22;6865;52.552;13.434;2022-09-29T01:31:51;8.40;99.90
13589;DHT22;6865;52.552;13.434;2022-09-29T01:34:58;8.40;99.90
13589;DHT22;6865;52.552;13.434;2022-09-29T01:40:23;8.30;99.90
13589;DHT22;6865;52.552;13.434;2022-09-29T01:45:33;8.30;99.90
13589;DHT22;6865;52.552;13.434;2022-09-29T01:48:05;8.30;99.90
13589;DHT22;6865;52.552;13.434;2022-09-29T01:50:40;8.30;99.90
13589;DHT22;6865;52.552;13.434;2022-09-29T01:53:12;8.20;99.90
13589;DHT22;6865;52.552;13.434;2022-09-29T01:55:46;8.30;99.90
13589;DHT22;6865;52.552;13.434;2022-09-29T02:01:35;8.20;99.90
13589;DHT22;6865;52.552;13.434;2022-09-29T02:04:17;8.20;99.90
13589;DHT22;6865;52.552;13.434;2022-09-29T02:06:53;8.20;99.90
13589;DHT22;6865;52.552;13.434;2022-09-29T02:09:27;8.10;99.90
13589;DHT22;6865;52.552;13.434;2022-09-29T02:11:56;8.10;99.90
13589;DHT22;6865;52.552;13.434;2022-09-29T02:14:29;8.10;99.90
13589;DHT22;6865;52.552;13.434;2022-09-29T02:17:23;8.20;99.90
13589;DHT22;6865;52.552;13.434;2022-09-29T02:19:54;8.20;99.90
13589;DHT22;6865;52.552;13.434;2022-09-29T02:22:24;8.20;99.90
13589;DHT22;6865;52.552;13.434;2022-09-29T02:24:54;8.20;99.90
13589;DHT22;6865;52.552;13.434;2022-09-29T02:27:26;8.20;99.90
13589;DHT22;6865;52.552;13.434;2022-09-29T02:29:59;8.20;99.90
13589;DHT22;6865;52.552;13.434;2022-09-29T02:32:28;8.20;99.90
13589;DHT22;6865;52.552;13.434;2022-09-29T02:34:55;8.20;99.90
13589;DHT22;6865;52.552;13.434;2022-09-29T02:46:10;8.40;99.90
13589;DHT22;6865;52.552;13.434;2022-09-29T02:49:00;8.40;99.90
13589;DHT22;6865;52.552;13.434;2022-09-29T02:51:33;8.50;99.90
13589;DHT22;6865;52.552;13.434;2022-09-29T02:54:32;8.50;99.90
13589;DHT22;6865;52.552;13.434;2022-09-29T02:57:17;8.60;99.90
13589;DHT22;6865;52.552;13.434;2022-09-29T03:00:09;8.60;99.90
13589;DHT22;6865;52.552;13.434;2022-09-29T03:02:38;8.70;99.90
13589;DHT22;6865;52.552;13.434;2022-09-29T03:05:08;8.70;99.90
13589;DHT22;6865;52.552;13.434;2022-09-29T03:07:37;8.80;99.90
13589;DHT22;6865;52.552;13.434;2022-09-29T03:10:05;8.80;99.90
13589;DHT22;6865;52.552;13.434;2022-09-29T03:12:33;8.90;99.90
13589;DHT22;6865;52.552;13.434;2022-09-29T03:15:01;8.90;99.90
13589;DHT22;6865;52.552;13.434;2022-09-29T03:17:28;8.90;99.90
13589;DHT22;6865;52.552;13.434;2022-09-29T03:19:54;8.90;99.90
13589;DHT22;6865;52.552;13.434;2022-09-29T03:22:21;9.00;99.90
13589;DHT22;6865;52.552;13.434;2022-09-29T03:24:48;9.00;99.90
13589;DHT22;6865;52.552;13.434;2022-09-29T03:27:15;9.00;99.90
13589;DHT22;6865;52.552;13.434;2022-09-29T03:29:42;9.00;99.90
13589;DHT22;6865;52.552;13.434;2022-09-29T03:32:09;8.90;99.90
13589;DHT22;6865;52.552;13.434;2022-09-29T03:34:35;9.00;99.90
13589;DHT22;6865;52.552;13.434;2022-09-29T03:37:03;9.00;99.90
13589;DHT22;6865;52.552;13.434;2022-09-29T03:39:30;9.00;99.90
13589;DHT22;6865;52.552;13.434;2022-09-29T03:41:57;9.00;99.90
13589;DHT22;6865;52.552;13.434;2022-09-29T03:44:23;9.20;99.90
13589;DHT22;6865;52.552;13.434;2022-09-29T03:46:50;9.10;99.90
13589;DHT22;6865;52.552;13.434;2022-09-29T03:49:19;9.00;99.90
13589;DHT22;6865;52.552;13.434;2022-09-29T03:51:46;9.10;99.90
13589;DHT22;6865;52.552;13.434;2022-09-29T03:54:16;9.10;99.90
13589;DHT22;6865;52.552;13.434;2022-09-29T03:56:43;9.10;99.90
13589;DHT22;6865;52.552;13.434;2022-09-29T03:59:10;9.10;99.90
13589;DHT22;6865;52.552;13.434;2022-09-29T04:01:38;9.20;99.90
13589;DHT22;6865;52.552;13.434;2022-09-29T04:04:05;9.20;99.90
13589;DHT22;6865;52.552;13.434;2022-09-29T04:06:35;9.20;99.90
13589;DHT22;6865;52.552;13.434;2022-09-29T04:09:02;9.20;99.90
13589;DHT22;6865;52.552;13.434;2022-09-29T04:11:32;9.20;99.90
13589;DHT22;6865;52.552;13.434;2022-09-29T04:13:58;9.30;99.90
13589;DHT22;6865;52.552;13.434;2022-09-29T04:16:25;9.10;99.90
13589;DHT22;6865;52.552;13.434;2022-09-29T04:18:52;9.20;99.90
13589;DHT22;6865;52.552;13.434;2022-09-29T04:21:18;9.20;99.90
13589;DHT22;6865;52.552;13.434;2022-09-29T04:23:46;9.20;99.90
13589;DHT22;6865;52.552;13.434;2022-09-29T04:26:13;9.10;99.90
13589;DHT22;6865;52.552;13.434;2022-09-29T04:28:39;9.10;99.90
13589;DHT22;6865;52.552;13.434;2022-09-29T04:31:06;9.10;99.90
13589;DHT22;6865;52.552;13.434;2022-09-29T04:33:33;9.10;99.90
13589;DHT22;6865;52.552;13.434;2022-09-29T04:36:00;9.20;99.90
13589;DHT22;6865;52.552;13.434;2022-09-29T04:38:27;9.20;99.90
13589;DHT22;6865;52.552;13.434;2022-09-29T04:40:54;9.30;99.90
13589;DHT22;6865;52.552;13.434;2022-09-29T04:43:20;9.30;99.90
13589;DHT22;6865;52.552;13.434;2022-09-29T04:45:47;9.30;99.90
13589;DHT22;6865;52.552;13.434;2022-09-29T04:48:14;9.30;99.90
13589;DHT22;6865;52.552;13.434;2022-09-29T04:50:41;9.30;99.90
13589;DHT22;6865;52.552;13.434;2022-09-29T04:53:09;9.30;99.90
13589;DHT22;6865;52.552;13.434;2022-09-29T04:55:37;9.30;99.90
13589;DHT22;6865;52.552;13.434;2022-09-29T04:58:04;9.30;99.90
13589;DHT22;6865;52.552;13.434;2022-09-29T05:00:31;9.30;99.90
13589;DHT22;6865;52.552;13.434;2022-09-29T05:02:58;9.30;99.90
13589;DHT22;6865;52.552;13.434;2022-09-29T05:05:25;9.30;99.90
13589;DHT22;6865;52.552;13.434;2022-09-29T05:07:52;9.30;99.90
13589;DHT22;6865;52.552;13.434;2022-09-29T05:10:19;8.90;99.90
13589;DHT22;6865;52.552;13.434;2022-09-29T05:12:49;9.10;99.90
13589;DHT22;6865;52.552;13.434;2022-09-29T05:15:17;9.10;99.90
13589;DHT22;6865;52.552;13.434;2022-09-29T05:17:50;9.00;99.90
13589;DHT22;6865;52.552;13.434;2022-09-29T05:20:16;9.00;99.90
13589;DHT22;6865;52.552;13.434;2022-09-29T05:22:43;9.10;99.90
13589;DHT22;6865;52.552;13.434;2022-09-29T05:25:10;9.20;99.90
13589;DHT22;6865;52.552;13.434;2022-09-29T05:27:37;9.30;99.90
13589;DHT22;6865;52.552;13.434;2022-09-29T05:30:04;9.40;99.90
13589;DHT22;6865;52.552;13.434;2022-09-29T05:32:31;9.40;99.90
13589;DHT22;6865;52.552;13.434;2022-09-29T05:34:57;9.50;99.90
13589;DHT22;6865;52.552;13.434;2022-09-29T05:37:24;9.50;99.90
13589;DHT22;6865;52.552;13.434;2022-09-29T05:39:51;9.40;99.90
13589;DHT22;6865;52.552;13.434;2022-09-29T05:42:18;9.30;99.90
13589;DHT22;6865;52.552;13.434;2022-09-29T05:44:45;9.20;99.90
13589;DHT22;6865;52.552;13.434;2022-09-29T05:47:12;9.30;99.90
13589;DHT22;6865;52.552;13.434;2022-09-29T05:49:38;9.40;99.90
13589;DHT22;6865;52.552;13.434;2022-09-29T05:52:06;9.50;99.90
13589;DHT22;6865;52.552;13.434;2022-09-29T05:54:32;9.50;99.90
13589;DHT22;6865;52.552;13.434;2022-09-29T05:56:59;9.60;99.90
13589;DHT22;6865;52.552;13.434;2022-09-29T05:59:25;9.60;99.90
13589;DHT22;6865;52.552;13.434;2022-09-29T06:01:52;9.70;99.90
13589;DHT22;6865;52.552;13.434;2022-09-29T06:04:19;9.70;99.90
13589;DHT22;6865;52.552;13.434;2022-09-29T06:06:45;9.60;99.90
13589;DHT22;6865;52.552;13.434;2022-09-29T06:09:13;9.50;99.90
13589;DHT22;6865;52.552;13.434;2022-09-29T06:11:41;9.50;99.90
13589;DHT22;6865;52.552;13.434;2022-09-29T06:14:07;9.50;99.90
13589;DHT22;6865;52.552;13.434;2022-09-29T06:16:34;9.20;99.90
13589;DHT22;6865;52.552;13.434;2022-09-29T06:19:02;9.80;99.90
13589;DHT22;6865;52.552;13.434;2022-09-29T06:21:30;9.90;99.90
13589;DHT22;6865;52.552;13.434;2022-09-29T06:23:57;10.00;99.90
13589;DHT22;6865;52.552;13.434;2022-09-29T06:26:25;10.00;99.90
13589;DHT22;6865;52.552;13.434;2022-09-29T06:28:52;9.90;99.90
13589;DHT22;6865;52.552;13.434;2022-09-29T06:31:22;9.80;99.90
13589;DHT22;6865;52.552;13.434;2022-09-29T06:33:50;9.80;99.90
13589;DHT22;6865;52.552;13.434;2022-09-29T06:36:43;9.80;99.90
13589;DHT22;6865;52.552;13.434;2022-09-29T06:39:27;9.70;99.90
13589;DHT22;6865;52.552;13.434;2022-09-29T06:41:55;9.80;99.90
13589;DHT22;6865;52.552;13.434;2022-09-29T06:44:24;9.80;99.90
13589;DHT22;6865;52.552;13.434;2022-09-29T06:46:52;9.80;99.90
13589;DHT22;6865;52.552;13.434;2022-09-29T06:49:19;10.00;99.90
13589;DHT22;6865;52.552;13.434;2022-09-29T06:51:46;10.10;99.90
13589;DHT22;6865;52.552;13.434;2022-09-29T06:54:18;10.10;99.90
13589;DHT22;6865;52.552;13.434;2022-09-29T06:56:47;10.20;99.90
13589;DHT22;6865;52.552;13.434;2022-09-29T06:59:14;10.30;99.90
13589;DHT22;6865;52.552;13.434;2022-09-29T07:01:41;10.40;99.90
13589;DHT22;6865;52.552;13.434;2022-09-29T07:04:08;10.50;99.90
13589;DHT22;6865;52.552;13.434;2022-09-29T07:06:34;10.40;99.90
13589;DHT22;6865;52.552;13.434;2022-09-29T07:09:01;10.60;99.90
13589;DHT22;6865;52.552;13.434;2022-09-29T07:11:27;10.70;99.90
13589;DHT22;6865;52.552;13.434;2022-09-29T07:13:54;10.70;99.90
13589;DHT22;6865;52.552;13.434;2022-09-29T07:16:21;10.80;99.90
13589;DHT22;6865;52.552;13.434;2022-09-29T07:18:50;10.90;99.90
13589;DHT22;6865;52.552;13.434;2022-09-29T07:21:17;10.80;99.90
13589;DHT22;6865;52.552;13.434;2022-09-29T07:23:45;10.70;99.90
13589;DHT22;6865;52.552;13.434;2022-09-29T07:26:14;10.70;99.90
13589;DHT22;6865;52.552;13.434;2022-09-29T07:28:42;10.80;99.90
13589;DHT22;6865;52.552;13.434;2022-09-29T07:31:12;10.90;99.90
13589;DHT22;6865;52.552;13.434;2022-09-29T07:33:45;10.90;99.90
13589;DHT22;6865;52.552;13.434;2022-09-29T07:36:16;11.00;99.90
13589;DHT22;6865;52.552;13.434;2022-09-29T07:38:47;10.90;99.90
13589;DHT22;6865;52.552;13.434;2022-09-29T07:41:15;11.00;99.90
13589;DHT22;6865;52.552;13.434;2022-09-29T07:43:42;11.00;99.90
13589;DHT22;6865;52.552;13.434;2022-09-29T07:46:09;10.90;99.90
13589;DHT22;6865;52.552;13.434;2022-09-29T07:48:36;11.00;99.90
13589;DHT22;6865;52.552;13.434;2022-09-29T07:51:14;11.00;99.90
13589;DHT22;6865;52.552;13.434;2022-09-29T07:53:41;11.00;99.90
13589;DHT22;6865;52.552;13.434;2022-09-29T07:56:13;10.80;99.90
13589;DHT22;6865;52.552;13.434;2022-09-29T07:58:40;11.00;99.90
13589;DHT22;6865;52.552;13.434;2022-09-29T08:01:09;11.00;99.90
13589;DHT22;6865;52.552;13.434;2022-09-29T08:03:39;11.10;99.90
13589;DHT22;6865;52.552;13.434;2022-09-29T08:06:07;11.10;99.90
13589;DHT22;6865;52.552;13.434;2022-09-29T08:08:35;11.10;99.90
13589;DHT22;6865;52.552;13.434;2022-09-29T08:11:04;11.20;99.90
13589;DHT22;6865;52.552;13.434;2022-09-29T08:13:32;11.10;99.90
13589;DHT22;6865;52.552;13.434;2022-09-29T08:16:00;11.50;99.90
13589;DHT22;6865;52.552;13.434;2022-09-29T08:18:28;11.20;99.90
13589;DHT22;6865;52.552;13.434;2022-09-29T08:20:55;11.20;99.90
13589;DHT22;6865;52.552;13.434;2022-09-29T08:23:27;11.20;99.90
13589;DHT22;6865;52.552;13.434;2022-09-29T08:26:05;11.40;99.90
13589;DHT22;6865;52.552;13.434;2022-09-29T08:28:34;11.40;99.90
13589;DHT22;6865;52.552;13.434;2022-09-29T08:31:19;11.40;99.90
13589;DHT22;6865;52.552;13.434;2022-09-29T08:33:48;11.50;99.90
13589;DHT22;6865;52.552;13.434;2022-09-29T08:36:18;11.50;99.90
13589;DHT22;6865;52.552;13.434;2022-09-29T08:38:48;11.70;99.90
13589;DHT22;6865;52.552;13.434;2022-09-29T08:47:20;11.80;99.90
13589;DHT22;6865;52.552;13.434;2022-09-29T08:50:03;12.00;99.90
13589;DHT22;6865;52.552;13.434;2022-09-29T08:52:38;12.10;99.90
13589;DHT22;6865;52.552;13.434;2022-09-29T08:57:57;12.20;99.90
13589;DHT22;6865;52.552;13.434;2022-09-29T09:00:59;12.20;99.90
13589;DHT22;6865;52.552;13.434;2022-09-29T09:03:56;12.30;99.90
13589;DHT22;6865;52.552;13.434;2022-09-29T09:09:31;12.20;99.90
13589;DHT22;6865;52.552;13.434;2022-09-29T09:15:23;12.50;99.90
13589;DHT22;6865;52.552;13.434;2022-09-29T09:18:16;12.20;99.90
13589;DHT22;6865;52.552;13.434;2022-09-29T09:20:59;12.40;99.90
13589;DHT22;6865;52.552;13.434;2022-09-29T09:23:55;12.30;99.90
13589;DHT22;6865;52.552;13.434;2022-09-29T09:26:34;12.40;99.90
13589;DHT22;6865;52.552;13.434;2022-09-29T09:29:08;12.70;99.90
13589;DHT22;6865;52.552;13.434;2022-09-29T09:31:43;12.90;99.90
13589;DHT22;6865;52.552;13.434;2022-09-29T09:34:22;13.00;99.90
13589;DHT22;6865;52.552;13.434;2022-09-29T09:37:14;13.00;99.90
13589;DHT22;6865;52.552;13.434;2022-09-29T09:39:50;12.60;99.90
13589;DHT22;6865;52.552;13.434;2022-09-29T09:42:23;12.40;99.90
13589;DHT22;6865;52.552;13.434;2022-09-29T09:44:59;12.60;99.90
13589;DHT22;6865;52.552;13.434;2022-09-29T09:47:30;12.90;99.90
13589;DHT22;6865;52.552;13.434;2022-09-29T09:50:15;12.70;99.90
13589;DHT22;6865;52.552;13.434;2022-09-29T09:52:46;12.70;99.90
13589;DHT22;6865;52.552;13.434;2022-09-29T09:55:19;12.90;99.90
13589;DHT22;6865;52.552;13.434;2022-09-29T09:58:05;13.10;99.90
13589;DHT22;6865;52.552;13.434;2022-09-29T10:00:49;13.20;99.90
13589;DHT22;6865;52.552;13.434;2022-09-29T10:03:16;13.30;99.90
13589;DHT22;6865;52.552;13.434;2022-09-29T10:05:44;13.20;99.90
13589;DHT22;6865;52.552;13.434;2022-09-29T10:08:25;13.30;99.90
13589;DHT22;6865;52.552;13.434;2022-09-29T10:10:53;13.50;99.90
13589;DHT22;6865;52.552;13.434;2022-09-29T10:13:27;13.40;99.90
13589;DHT22;6865;52.552;13.434;2022-09-29T10:15:59;13.30;99.90
13589;DHT22;6865;52.552;13.434;2022-09-29T10:18:31;13.30;99.90
13589;DHT22;6865;52.552;13.434;2022-09-29T10:21:01;13.50;99.90
13589;DHT22;6865;52.552;13.434;2022-09-29T10:23:33;13.60;99.90
13589;DHT22;6865;52.552;13.434;2022-09-29T10:26:15;13.50;99.90
13589;DHT22;6865;52.552;13.434;2022-09-29T10:28:54;13.60;99.90
13589;DHT22;6865;52.552;13.434;2022-09-29T10:31:33;13.80;99.90
13589;DHT22;6865;52.552;13.434;2022-09-29T10:34:21;13.80;99.90
13589;DHT22;6865;52.552;13.434;2022-09-29T10:36:57;13.80;99.90
13589;DHT22;6865;52.552;13.434;2022-09-29T10:40:00;13.80;99.90
13589;DHT22;6865;52.552;13.434;2022-09-29T10:42:34;13.80;99.90
13589;DHT22;6865;52.552;13.434;2022-09-29T10:45:18;13.60;99.90
13589;DHT22;6865;52.552;13.434;2022-09-29T10:50:31;13.90;99.90
13589;DHT22;6865;52.552;13.434;2022-09-29T10:53:05;14.10;99.90
13589;DHT22;6865;52.552;13.434;2022-09-29T10:55:47;14.20;99.90
13589;DHT22;6865;52.552;13.434;2022-09-29T10:58:35;14.20;99.90
13589;DHT22;6865;52.552;13.434;2022-09-29T11:01:22;14.40;99.90
13589;DHT22;6865;52.552;13.434;2022-09-29T11:04:00;14.40;99.90
13589;DHT22;6865;52.552;13.434;2022-09-29T11:06:33;14.30;99.90
13589;DHT22;6865;52.552;13.434;2022-09-29T11:14:31;13.70;99.90
13589;DHT22;6865;52.552;13.434;2022-09-29T11:17:30;14.00;99.90
13589;DHT22;6865;52.552;13.434;2022-09-29T11:20:02;14.10;99.90
13589;DHT22;6865;52.552;13.434;2022-09-29T11:25:45;13.90;99.90
13589;DHT22;6865;52.552;13.434;2022-09-29T11:28:32;13.80;99.90
13589;DHT22;6865;52.552;13.434;2022-09-29T11:31:42;13.70;99.90
13589;DHT22;6865;52.552;13.434;2022-09-29T11:34:33;13.80;99.90
13589;DHT22;6865;52.552;13.434;2022-09-29T11:40:12;14.10;99.90
13589;DHT22;6865;52.552;13.434;2022-09-29T11:43:05;14.10;99.90
13589;DHT22;6865;52.552;13.434;2022-09-29T11:45:59;14.20;99.90
13589;DHT22;6865;52.552;13.434;2022-09-29T11:48:36;14.30;99.90
13589;DHT22;6865;52.552;13.434;2022-09-29T11:53:58;14.50;99.90
13589;DHT22;6865;52.552;13.434;2022-09-29T11:56:50;14.60;99.90
13589;DHT22;6865;52.552;13.434;2022-09-29T11:59:41;14.80;99.90
13589;DHT22;6865;52.552;13.434;2022-09-29T12:08:38;14.30;99.90
13589;DHT22;6865;52.552;13.434;2022-09-29T12:11:29;14.40;99.90
13589;DHT22;6865;52.552;13.434;2022-09-29T12:14:32;14.70;99.90
13589;DHT22;6865;52.552;13.434;2022-09-29T12:17:16;14.60;99.90
13589;DHT22;6865;52.552;13.434;2022-09-29T12:19:44;14.40;99.90
13589;DHT22;6865;52.552;13.434;2022-09-29T12:22:17;14.50;99.90
13589;DHT22;6865;52.552;13.434;2022-09-29T12:24:49;13.70;99.90
13589;DHT22;6865;52.552;13.434;2022-09-29T12:27:35;14.50;99.90
13589;DHT22;6865;52.552;13.434;2022-09-29T12:30:27;14.50;99.90
13589;DHT22;6865;52.552;13.434;2022-09-29T12:33:06;14.10;99.90
13589;DHT22;6865;52.552;13.434;2022-09-29T12:35:38;14.40;99.90
13589;DHT22;6865;52.552;13.434;2022-09-29T12:38:38;14.40;99.90
13589;DHT22;6865;52.552;13.434;2022-09-29T12:41:15;14.50;99.90
13589;DHT22;6865;52.552;13.434;2022-09-29T12:43:53;14.60;99.90
13589;DHT22;6865;52.552;13.434;2022-09-29T12:46:48;14.60;99.90
13589;DHT22;6865;52.552;13.434;2022-09-29T12:49:23;14.30;99.90
13589;DHT22;6865;52.552;13.434;2022-09-29T12:51:52;14.10;99.90
13589;DHT22;6865;52.552;13.434;2022-09-29T12:54:32;13.90;99.90
13589;DHT22;6865;52.552;13.434;2022-09-29T12:57:04;14.00;99.90
13589;DHT22;6865;52.552;13.434;2022-09-29T12:59:56;14.00;99.90
13589;DHT22;6865;52.552;13.434;2022-09-29T13:02:46;14.00;99.90
13589;DHT22;6865;52.552;13.434;2022-09-29T13:08:18;14.10;99.90
13589;DHT22;6865;52.552;13.434;2022-09-29T13:11:15;14.10;99.90
13589;DHT22;6865;52.552;13.434;2022-09-29T13:14:00;14.20;99.90
13589;DHT22;6865;52.552;13.434;2022-09-29T13:16:45;14.30;99.90
13589;DHT22;6865;52.552;13.434;2022-09-29T13:22:46;14.60;99.90
13589;DHT22;6865;52.552;13.434;2022-09-29T13:28:25;14.60;99.90
13589;DHT22;6865;52.552;13.434;2022-09-29T13:30:54;14.60;99.90
13589;DHT22;6865;52.552;13.434;2022-09-29T13:33:25;14.70;99.90
13589;DHT22;6865;52.552;13.434;2022-09-29T13:35:52;14.80;99.90
13589;DHT22;6865;52.552;13.434;2022-09-29T13:38:36;14.80;99.90
13589;DHT22;6865;52.552;13.434;2022-09-29T13:41:16;14.80;99.90
13589;DHT22;6865;52.552;13.434;2022-09-29T13:51:58;14.70;99.90
13589;DHT22;6865;52.552;13.434;2022-09-29T13:54:31;14.80;99.60
13589;DHT22;6865;52.552;13.434;2022-09-29T13:59:43;14.70;98.70
13589;DHT22;6865;52.552;13.434;2022-09-29T14:10:43;14.60;98.30
13589;DHT22;6865;52.552;13.434;2022-09-29T14:13:11;14.60;98.30
13589;DHT22;6865;52.552;13.434;2022-09-29T14:15:50;14.60;98.30
13589;DHT22;6865;52.552;13.434;2022-09-29T14:18:29;14.60;97.90
13589;DHT22;6865;52.552;13.434;2022-09-29T14:21:02;14.60;98.00
13589;DHT22;6865;52.552;13.434;2022-09-29T14:27:32;14.70;97.80
13589;DHT22;6865;52.552;13.434;2022-09-29T14:29:29;14.70;97.70
13589;DHT22;6865;52.552;13.434;2022-09-29T14:31:58;14.70;97.90
13589;DHT22;6865;52.552;13.434;2022-09-29T14:34:29;14.60;97.40
13589;DHT22;6865;52.552;13.434;2022-09-29T14:36:57;14.60;98.10
13589;DHT22;6865;52.552;13.434;2022-09-29T14:39:26;14.60;98.30
13589;DHT22;6865;52.552;13.434;2022-09-29T14:41:55;14.70;97.80
13589;DHT22;6865;52.552;13.434;2022-09-29T14:44:25;14.70;97.60
13589;DHT22;6865;52.552;13.434;2022-09-29T14:47:37;14.70;97.50
13589;DHT22;6865;52.552;13.434;2022-09-29T14:50:46;14.70;97.80
13589;DHT22;6865;52.552;13.434;2022-09-29T14:54:00;14.80;97.70
13589;DHT22;6865;52.552;13.434;2022-09-29T14:59:44;14.80;97.40
13589;DHT22;6865;52.552;13.434;2022-09-29T15:02:25;14.80;97.40
13589;DHT22;6865;52.552;13.434;2022-09-29T15:04:54;14.70;97.40
13589;DHT22;6865;52.552;13.434;2022-09-29T15:07:24;14.60;97.40
13589;DHT22;6865;52.552;13.434;2022-09-29T15:09:53;13.60;97.30
13589;DHT22;6865;52.552;13.434;2022-09-29T15:12:26;14.60;97.40
13589;DHT22;6865;52.552;13.434;2022-09-29T15:14:54;14.60;96.80
13589;DHT22;6865;52.552;13.434;2022-09-29T15:17:30;14.70;96.60
13589;DHT22;6865;52.552;13.434;2022-09-29T15:20:17;14.70;96.90
13589;DHT22;6865;52.552;13.434;2022-09-29T15:25:53;14.60;96.90
13589;DHT22;6865;52.552;13.434;2022-09-29T15:28:30;14.60;96.50
13589;DHT22;6865;52.552;13.434;2022-09-29T15:31:08;14.60;96.50
13589;DHT22;6865;52.552;13.434;2022-09-29T15:33:37;14.60;96.50
13589;DHT22;6865;52.552;13.434;2022-09-29T15:36:17;14.40;96.80
13589;DHT22;6865;52.552;13.434;2022-09-29T15:38:46;14.30;97.00
13589;DHT22;6865;52.552;13.434;2022-09-29T15:41:17;14.30;96.80
13589;DHT22;6865;52.552;13.434;2022-09-29T15:43:55;14.20;96.80
13589;DHT22;6865;52.552;13.434;2022-09-29T15:49:07;14.30;97.10
13589;DHT22;6865;52.552;13.434;2022-09-29T15:51:36;14.30;97.40
13589;DHT22;6865;52.552;13.434;2022-09-29T15:54:03;14.30;97.50
13589;DHT22;6865;52.552;13.434;2022-09-29T15:56:31;14.30;98.00
13589;DHT22;6865;52.552;13.434;2022-09-29T15:58:57;14.30;98.30
13589;DHT22;6865;52.552;13.434;2022-09-29T16:01:25;14.30;98.80
13589;DHT22;6865;52.552;13.434;2022-09-29T16:03:56;14.20;98.80
13589;DHT22;6865;52.552;13.434;2022-09-29T16:06:32;14.10;99.20
13589;DHT22;6865;52.552;13.434;2022-09-29T16:09:03;14.00;99.60
13589;DHT22;6865;52.552;13.434;2022-09-29T16:11:33;13.90;99.80
13589;DHT22;6865;52.552;13.434;2022-09-29T16:14:02;13.70;99.90
13589;DHT22;6865;52.552;13.434;2022-09-29T16:16:35;13.60;99.90
13589;DHT22;6865;52.552;13.434;2022-09-29T16:19:29;13.50;99.90
13589;DHT22;6865;52.552;13.434;2022-09-29T16:21:59;13.40;99.90
13589;DHT22;6865;52.552;13.434;2022-09-29T16:24:29;13.30;99.90
13589;DHT22;6865;52.552;13.434;2022-09-29T16:26:57;13.30;99.90
13589;DHT22;6865;52.552;13.434;2022-09-29T16:29:31;13.10;99.90
13589;DHT22;6865;52.552;13.434;2022-09-29T16:32:01;13.10;99.90
13589;DHT22;6865;52.552;13.434;2022-09-29T16:34:46;13.00;99.90
13589;DHT22;6865;52.552;13.434;2022-09-29T16:37:15;12.70;99.90
13589;DHT22;6865;52.552;13.434;2022-09-29T16:39:45;12.60;99.90
13589;DHT22;6865;52.552;13.434;2022-09-29T16:42:22;12.40;99.90
13589;DHT22;6865;52.552;13.434;2022-09-29T16:44:52;12.20;99.90
13589;DHT22;6865;52.552;13.434;2022-09-29T16:47:27;12.10;99.90
13589;DHT22;6865;52.552;13.434;2022-09-29T16:50:05;12.00;99.90
13589;DHT22;6865;52.552;13.434;2022-09-29T16:52:41;11.90;99.90
13589;DHT22;6865;52.552;13.434;2022-09-29T16:58:03;11.70;99.90
13589;DHT22;6865;52.552;13.434;2022-09-29T17:00:30;11.60;99.90
13589;DHT22;6865;52.552;13.434;2022-09-29T17:02:57;11.00;99.90
13589;DHT22;6865;52.552;13.434;2022-09-29T17:05:25;11.50;99.90
13589;DHT22;6865;52.552;13.434;2022-09-29T17:08:02;11.40;99.90
13589;DHT22;6865;52.552;13.434;2022-09-29T17:10:30;11.30;99.90
13589;DHT22;6865;52.552;13.434;2022-09-29T17:12:57;11.30;99.90
13589;DHT22;6865;52.552;13.434;2022-09-29T17:15:24;11.30;99.90
13589;DHT22;6865;52.552;13.434;2022-09-29T17:17:51;11.20;99.90
13589;DHT22;6865;52.552;13.434;2022-09-29T17:20:21;11.20;99.90
13589;DHT22;6865;52.552;13.434;2022-09-29T17:22:55;11.10;99.90
13589;DHT22;6865;52.552;13.434;2022-09-29T17:25:22;11.10;99.90
13589;DHT22;6865;52.552;13.434;2022-09-29T17:27:48;10.80;99.90
13589;DHT22;6865;52.552;13.434;2022-09-29T17:30:34;11.10;99.90
13589;DHT22;6865;52.552;13.434;2022-09-29T17:33:00;11.20;99.90
13589;DHT22;6865;52.552;13.434;2022-09-29T17:35:32;11.00;99.90
13589;DHT22;6865;52.552;13.434;2022-09-29T17:37:59;11.10;99.90
13589;DHT22;6865;52.552;13.434;2022-09-29T17:40:55;11.00;99.90
13589;DHT22;6865;52.552;13.434;2022-09-29T17:43:21;11.00;99.90
13589;DHT22;6865;52.552;13.434;2022-09-29T17:45:53;10.90;99.90
13589;DHT22;6865;52.552;13.434;2022-09-29T17:48:20;10.90;99.90
13589;DHT22;6865;52.552;13.434;2022-09-29T17:50:49;10.90;99.90
13589;DHT22;6865;52.552;13.434;2022-09-29T17:53:16;10.90;99.90
13589;DHT22;6865;52.552;13.434;2022-09-29T17:55:48;11.00;99.90
13589;DHT22;6865;52.552;13.434;2022-09-29T17:58:16;10.90;99.90
13589;DHT22;6865;52.552;13.434;2022-09-29T18:00:48;11.00;99.90
13589;DHT22;6865;52.552;13.434;2022-09-29T18:03:17;11.00;99.90